Terminal Aerodrome Forecast
Issued by NWS Louisville, KY

Home | Current Version | Previous Version | Text Only | Print | Product List | Glossary Off
Versions: 1 2 3 4 5 6 7 8 9 10 11 12 13 14 15

000
FTUS43 KLMK 310800 AAA
TAFSDF
TAF AMD
KSDF 310836Z 3109/0112 18008KT 6SM -SHRA BR BKN009
      TEMPO 3110/3112 3SM RA BR BKN015
     FM311200 19008KT 6SM -SHRA BR BKN015
     FM311800 22010KT P6SM VCSH SCT025 BKN035=

USA.gov is the U.S. government's official web portal to all federal, state and local government web resources and services.